sensor_id;sensor_type;location;lat;lon;timestamp;pressure;altitude;pressure_sealevel;temperature;humidity
16777;BME280;8505;49.456;8.164;2023-11-19T00:00:09;99579.13;;;9.85;100.00
16777;BME280;8505;49.456;8.164;2023-11-19T00:02:39;99574.69;;;9.86;100.00
16777;BME280;8505;49.456;8.164;2023-11-19T00:05:08;99590.19;;;9.89;100.00
16777;BME280;8505;49.456;8.164;2023-11-19T00:07:38;99591.16;;;9.96;100.00
16777;BME280;8505;49.456;8.164;2023-11-19T00:10:09;99585.19;;;10.02;100.00
16777;BME280;8505;49.456;8.164;2023-11-19T00:12:37;99578.75;;;10.04;100.00
16777;BME280;8505;49.456;8.164;2023-11-19T00:15:06;99557.75;;;10.03;100.00
16777;BME280;8505;49.456;8.164;2023-11-19T00:17:40;99564.38;;;9.99;100.00
16777;BME280;8505;49.456;8.164;2023-11-19T00:20:12;99569.66;;;9.99;100.00
16777;BME280;8505;49.456;8.164;2023-11-19T00:22:40;99565.22;;;9.99;100.00
16777;BME280;8505;49.456;8.164;2023-11-19T00:25:11;99565.34;;;10.06;100.00
16777;BME280;8505;49.456;8.164;2023-11-19T00:27:39;99540.50;;;10.07;100.00
16777;BME280;8505;49.456;8.164;2023-11-19T00:30:08;99548.44;;;10.07;100.00
16777;BME280;8505;49.456;8.164;2023-11-19T00:32:35;99539.06;;;10.04;100.00
16777;BME280;8505;49.456;8.164;2023-11-19T00:35:06;99539.69;;;10.06;100.00
16777;BME280;8505;49.456;8.164;2023-11-19T00:37:34;99549.47;;;10.06;100.00
16777;BME280;8505;49.456;8.164;2023-11-19T00:40:03;99570.75;;;10.12;100.00
16777;BME280;8505;49.456;8.164;2023-11-19T00:42:32;99561.00;;;10.21;100.00
16777;BME280;8505;49.456;8.164;2023-11-19T00:45:00;99551.75;;;10.17;100.00
16777;BME280;8505;49.456;8.164;2023-11-19T00:47:27;99551.56;;;10.19;100.00
16777;BME280;8505;49.456;8.164;2023-11-19T00:49:57;99546.59;;;10.15;100.00
16777;BME280;8505;49.456;8.164;2023-11-19T00:52:26;99544.44;;;10.19;100.00
16777;BME280;8505;49.456;8.164;2023-11-19T00:54:54;99534.19;;;10.24;100.00
16777;BME280;8505;49.456;8.164;2023-11-19T00:57:21;99541.78;;;10.27;100.00
16777;BME280;8505;49.456;8.164;2023-11-19T00:59:50;99535.81;;;10.25;100.00
16777;BME280;8505;49.456;8.164;2023-11-19T01:02:18;99546.75;;;10.22;100.00
16777;BME280;8505;49.456;8.164;2023-11-19T01:04:46;99528.25;;;10.22;100.00
16777;BME280;8505;49.456;8.164;2023-11-19T01:07:14;99532.34;;;10.25;100.00
16777;BME280;8505;49.456;8.164;2023-11-19T01:09:44;99527.88;;;10.25;100.00
16777;BME280;8505;49.456;8.164;2023-11-19T01:12:11;99515.00;;;10.22;100.00
16777;BME280;8505;49.456;8.164;2023-11-19T01:14:39;99537.44;;;10.34;100.00
16777;BME280;8505;49.456;8.164;2023-11-19T01:17:07;99545.06;;;10.29;100.00
16777;BME280;8505;49.456;8.164;2023-11-19T01:19:35;99555.00;;;10.27;100.00
16777;BME280;8505;49.456;8.164;2023-11-19T01:22:03;99545.41;;;10.26;100.00
16777;BME280;8505;49.456;8.164;2023-11-19T01:24:31;99539.28;;;10.26;100.00
16777;BME280;8505;49.456;8.164;2023-11-19T01:27:01;99541.91;;;10.34;100.00
16777;BME280;8505;49.456;8.164;2023-11-19T01:29:29;99566.53;;;10.34;100.00
16777;BME280;8505;49.456;8.164;2023-11-19T01:31:57;99565.56;;;10.35;100.00
16777;BME280;8505;49.456;8.164;2023-11-19T01:34:25;99571.84;;;10.34;100.00
16777;BME280;8505;49.456;8.164;2023-11-19T01:36:53;99559.25;;;10.36;100.00
16777;BME280;8505;49.456;8.164;2023-11-19T01:39:20;99539.66;;;10.45;100.00
16777;BME280;8505;49.456;8.164;2023-11-19T01:41:49;99546.63;;;10.46;100.00
16777;BME280;8505;49.456;8.164;2023-11-19T01:44:17;99546.16;;;10.43;100.00
16777;BME280;8505;49.456;8.164;2023-11-19T01:46:46;99546.84;;;10.37;100.00
16777;BME280;8505;49.456;8.164;2023-11-19T01:49:15;99553.28;;;10.42;100.00
16777;BME280;8505;49.456;8.164;2023-11-19T01:51:46;99554.91;;;10.43;100.00
16777;BME280;8505;49.456;8.164;2023-11-19T01:54:15;99544.00;;;10.38;100.00
16777;BME280;8505;49.456;8.164;2023-11-19T01:56:43;99542.84;;;10.41;100.00
16777;BME280;8505;49.456;8.164;2023-11-19T01:59:12;99548.09;;;10.49;100.00
16777;BME280;8505;49.456;8.164;2023-11-19T02:01:42;99533.38;;;10.46;100.00
16777;BME280;8505;49.456;8.164;2023-11-19T02:04:11;99540.63;;;10.52;100.00
16777;BME280;8505;49.456;8.164;2023-11-19T02:06:41;99541.09;;;10.56;100.00
16777;BME280;8505;49.456;8.164;2023-11-19T02:09:10;99534.97;;;10.55;100.00
16777;BME280;8505;49.456;8.164;2023-11-19T02:11:39;99531.31;;;10.57;100.00
16777;BME280;8505;49.456;8.164;2023-11-19T02:14:07;99522.38;;;10.58;100.00
16777;BME280;8505;49.456;8.164;2023-11-19T02:16:35;99522.91;;;10.53;100.00
16777;BME280;8505;49.456;8.164;2023-11-19T02:19:04;99531.03;;;10.51;100.00
16777;BME280;8505;49.456;8.164;2023-11-19T02:21:33;99521.22;;;10.60;100.00
16777;BME280;8505;49.456;8.164;2023-11-19T02:24:02;99526.03;;;10.57;100.00
16777;BME280;8505;49.456;8.164;2023-11-19T02:26:39;99530.50;;;10.56;100.00
16777;BME280;8505;49.456;8.164;2023-11-19T02:29:11;99538.22;;;10.66;100.00
16777;BME280;8505;49.456;8.164;2023-11-19T02:31:39;99533.91;;;10.65;100.00
16777;BME280;8505;49.456;8.164;2023-11-19T02:34:07;99533.91;;;10.65;100.00
16777;BME280;8505;49.456;8.164;2023-11-19T02:36:35;99521.34;;;10.67;100.00
16777;BME280;8505;49.456;8.164;2023-11-19T02:39:03;99528.84;;;10.78;100.00
16777;BME280;8505;49.456;8.164;2023-11-19T02:41:35;99522.94;;;10.68;100.00
16777;BME280;8505;49.456;8.164;2023-11-19T02:44:03;99522.78;;;10.69;100.00
16777;BME280;8505;49.456;8.164;2023-11-19T02:46:33;99530.59;;;10.63;100.00
16777;BME280;8505;49.456;8.164;2023-11-19T02:49:01;99519.69;;;10.66;100.00
16777;BME280;8505;49.456;8.164;2023-11-19T02:51:29;99518.31;;;10.70;100.00
16777;BME280;8505;49.456;8.164;2023-11-19T02:53:57;99516.84;;;10.67;100.00
16777;BME280;8505;49.456;8.164;2023-11-19T02:56:24;99504.06;;;10.71;100.00
16777;BME280;8505;49.456;8.164;2023-11-19T02:58:53;99481.47;;;10.83;100.00
16777;BME280;8505;49.456;8.164;2023-11-19T03:01:24;99487.41;;;10.85;100.00
16777;BME280;8505;49.456;8.164;2023-11-19T03:03:59;99487.41;;;10.85;100.00
16777;BME280;8505;49.456;8.164;2023-11-19T03:06:30;99486.22;;;10.87;100.00
16777;BME280;8505;49.456;8.164;2023-11-19T03:08:58;99489.63;;;10.96;100.00
16777;BME280;8505;49.456;8.164;2023-11-19T03:11:32;99482.13;;;11.00;100.00
16777;BME280;8505;49.456;8.164;2023-11-19T03:14:00;99482.31;;;10.98;100.00
16777;BME280;8505;49.456;8.164;2023-11-19T03:16:29;99479.84;;;10.97;100.00
16777;BME280;8505;49.456;8.164;2023-11-19T03:18:58;99488.91;;;11.02;100.00
16777;BME280;8505;49.456;8.164;2023-11-19T03:21:28;99481.94;;;11.01;100.00
16777;BME280;8505;49.456;8.164;2023-11-19T03:23:56;99481.78;;;11.03;100.00
16777;BME280;8505;49.456;8.164;2023-11-19T03:26:25;99471.34;;;11.01;100.00
16777;BME280;8505;49.456;8.164;2023-11-19T03:28:53;99482.16;;;11.14;100.00
16777;BME280;8505;49.456;8.164;2023-11-19T03:31:20;99481.16;;;11.15;100.00
16777;BME280;8505;49.456;8.164;2023-11-19T03:33:48;99482.44;;;11.19;100.00
16777;BME280;8505;49.456;8.164;2023-11-19T03:36:17;99476.78;;;11.22;100.00
16777;BME280;8505;49.456;8.164;2023-11-19T03:38:45;99475.41;;;11.26;100.00
16777;BME280;8505;49.456;8.164;2023-11-19T03:41:13;99471.09;;;11.40;100.00
16777;BME280;8505;49.456;8.164;2023-11-19T03:43:42;99481.34;;;11.43;100.00
16777;BME280;8505;49.456;8.164;2023-11-19T03:46:17;99467.63;;;11.40;100.00
16777;BME280;8505;49.456;8.164;2023-11-19T03:48:46;99455.75;;;11.35;100.00
16777;BME280;8505;49.456;8.164;2023-11-19T03:51:14;99451.72;;;11.40;100.00
16777;BME280;8505;49.456;8.164;2023-11-19T03:53:43;99445.94;;;11.36;100.00
16777;BME280;8505;49.456;8.164;2023-11-19T03:56:11;99442.50;;;11.35;100.00
16777;BME280;8505;49.456;8.164;2023-11-19T03:58:39;99448.91;;;11.41;100.00
16777;BME280;8505;49.456;8.164;2023-11-19T04:01:11;99453.00;;;11.44;100.00
16777;BME280;8505;49.456;8.164;2023-11-19T04:03:40;99461.88;;;11.51;100.00
16777;BME280;8505;49.456;8.164;2023-11-19T04:06:11;99461.03;;;11.50;100.00
16777;BME280;8505;49.456;8.164;2023-11-19T04:08:38;99473.13;;;11.53;100.00
16777;BME280;8505;49.456;8.164;2023-11-19T04:11:07;99467.34;;;11.49;100.00
16777;BME280;8505;49.456;8.164;2023-11-19T04:13:36;99465.44;;;11.58;100.00
16777;BME280;8505;49.456;8.164;2023-11-19T04:16:04;99456.81;;;11.70;100.00
16777;BME280;8505;49.456;8.164;2023-11-19T04:18:32;99451.44;;;11.64;100.00
16777;BME280;8505;49.456;8.164;2023-11-19T04:21:00;99460.84;;;11.66;100.00
16777;BME280;8505;49.456;8.164;2023-11-19T04:23:27;99452.50;;;11.69;100.00
16777;BME280;8505;49.456;8.164;2023-11-19T04:25:55;99453.28;;;11.78;100.00
16777;BME280;8505;49.456;8.164;2023-11-19T04:28:37;99443.50;;;11.79;100.00
16777;BME280;8505;49.456;8.164;2023-11-19T04:31:05;99448.59;;;11.80;100.00
16777;BME280;8505;49.456;8.164;2023-11-19T04:33:34;99446.75;;;11.81;100.00
16777;BME280;8505;49.456;8.164;2023-11-19T04:36:01;99454.91;;;11.79;100.00
16777;BME280;8505;49.456;8.164;2023-11-19T04:38:30;99465.50;;;11.79;100.00
16777;BME280;8505;49.456;8.164;2023-11-19T04:40:57;99455.53;;;11.81;100.00
16777;BME280;8505;49.456;8.164;2023-11-19T04:43:25;99447.59;;;11.81;100.00
16777;BME280;8505;49.456;8.164;2023-11-19T04:45:54;99428.00;;;11.82;100.00
16777;BME280;8505;49.456;8.164;2023-11-19T04:48:22;99437.22;;;11.86;100.00
16777;BME280;8505;49.456;8.164;2023-11-19T04:50:50;99439.13;;;11.92;100.00
16777;BME280;8505;49.456;8.164;2023-11-19T04:53:19;99433.53;;;12.02;100.00
16777;BME280;8505;49.456;8.164;2023-11-19T04:55:47;99427.59;;;12.00;100.00
16777;BME280;8505;49.456;8.164;2023-11-19T04:58:15;99436.13;;;11.95;100.00
16777;BME280;8505;49.456;8.164;2023-11-19T05:00:43;99441.25;;;11.97;100.00
16777;BME280;8505;49.456;8.164;2023-11-19T05:03:13;99437.63;;;12.04;100.00
16777;BME280;8505;49.456;8.164;2023-11-19T05:05:40;99439.75;;;12.09;100.00
16777;BME280;8505;49.456;8.164;2023-11-19T05:08:08;99445.59;;;12.04;100.00
16777;BME280;8505;49.456;8.164;2023-11-19T05:10:38;99443.16;;;12.03;100.00
16777;BME280;8505;49.456;8.164;2023-11-19T05:13:07;99448.00;;;11.99;100.00
16777;BME280;8505;49.456;8.164;2023-11-19T05:15:35;99444.91;;;11.96;100.00
16777;BME280;8505;49.456;8.164;2023-11-19T05:18:03;99452.66;;;11.97;100.00
16777;BME280;8505;49.456;8.164;2023-11-19T05:20:32;99454.06;;;11.93;100.00
16777;BME280;8505;49.456;8.164;2023-11-19T05:23:00;99451.28;;;12.01;100.00
16777;BME280;8505;49.456;8.164;2023-11-19T05:25:28;99449.28;;;12.03;100.00
16777;BME280;8505;49.456;8.164;2023-11-19T05:27:56;99442.31;;;12.02;100.00
16777;BME280;8505;49.456;8.164;2023-11-19T05:30:23;99443.75;;;12.05;100.00
16777;BME280;8505;49.456;8.164;2023-11-19T05:32:51;99440.41;;;11.96;100.00
16777;BME280;8505;49.456;8.164;2023-11-19T05:35:19;99429.41;;;11.99;100.00
16777;BME280;8505;49.456;8.164;2023-11-19T05:37:48;99432.72;;;12.01;100.00
16777;BME280;8505;49.456;8.164;2023-11-19T05:40:16;99423.75;;;12.02;100.00
16777;BME280;8505;49.456;8.164;2023-11-19T05:42:45;99427.84;;;12.05;100.00
16777;BME280;8505;49.456;8.164;2023-11-19T05:45:13;99428.72;;;12.12;100.00
16777;BME280;8505;49.456;8.164;2023-11-19T05:47:41;99413.81;;;12.11;100.00
16777;BME280;8505;49.456;8.164;2023-11-19T05:50:10;99419.50;;;12.08;100.00
16777;BME280;8505;49.456;8.164;2023-11-19T05:52:38;99417.28;;;12.11;100.00
16777;BME280;8505;49.456;8.164;2023-11-19T05:55:07;99409.63;;;12.23;100.00
16777;BME280;8505;49.456;8.164;2023-11-19T05:57:37;99409.84;;;12.22;100.00
16777;BME280;8505;49.456;8.164;2023-11-19T06:00:09;99406.09;;;12.37;100.00
16777;BME280;8505;49.456;8.164;2023-11-19T06:02:39;99428.81;;;12.40;100.00
16777;BME280;8505;49.456;8.164;2023-11-19T06:05:07;99424.50;;;12.39;100.00
16777;BME280;8505;49.456;8.164;2023-11-19T06:07:36;99423.69;;;12.38;100.00
16777;BME280;8505;49.456;8.164;2023-11-19T06:10:07;99426.78;;;12.42;100.00
16777;BME280;8505;49.456;8.164;2023-11-19T06:12:36;99429.53;;;12.55;100.00
16777;BME280;8505;49.456;8.164;2023-11-19T06:15:08;99427.91;;;12.54;100.00
16777;BME280;8505;49.456;8.164;2023-11-19T06:17:36;99439.75;;;12.51;100.00
16777;BME280;8505;49.456;8.164;2023-11-19T06:20:05;99436.25;;;12.51;100.00
16777;BME280;8505;49.456;8.164;2023-11-19T06:22:34;99436.63;;;12.48;100.00
16777;BME280;8505;49.456;8.164;2023-11-19T06:25:02;99430.72;;;12.46;100.00
16777;BME280;8505;49.456;8.164;2023-11-19T06:27:35;99432.78;;;12.50;100.00
16777;BME280;8505;49.456;8.164;2023-11-19T06:30:03;99428.66;;;12.48;100.00
16777;BME280;8505;49.456;8.164;2023-11-19T06:32:32;99429.19;;;12.37;100.00
16777;BME280;8505;49.456;8.164;2023-11-19T06:35:00;99419.25;;;12.45;100.00
16777;BME280;8505;49.456;8.164;2023-11-19T06:37:27;99405.97;;;12.45;100.00
16777;BME280;8505;49.456;8.164;2023-11-19T06:39:55;99432.06;;;12.42;100.00
16777;BME280;8505;49.456;8.164;2023-11-19T06:42:23;99417.59;;;12.44;100.00
16777;BME280;8505;49.456;8.164;2023-11-19T06:44:52;99427.91;;;12.54;100.00
16777;BME280;8505;49.456;8.164;2023-11-19T06:47:19;99442.19;;;12.53;100.00
16777;BME280;8505;49.456;8.164;2023-11-19T06:49:47;99445.28;;;12.56;100.00
16777;BME280;8505;49.456;8.164;2023-11-19T06:52:16;99451.63;;;12.55;100.00
16777;BME280;8505;49.456;8.164;2023-11-19T06:54:44;99458.94;;;12.53;100.00
16777;BME280;8505;49.456;8.164;2023-11-19T06:57:13;99465.00;;;12.47;100.00
16777;BME280;8505;49.456;8.164;2023-11-19T06:59:42;99442.41;;;12.51;100.00
16777;BME280;8505;49.456;8.164;2023-11-19T07:02:11;99445.59;;;12.47;100.00
16777;BME280;8505;49.456;8.164;2023-11-19T07:04:40;99455.28;;;12.54;100.00
16777;BME280;8505;49.456;8.164;2023-11-19T07:07:08;99460.00;;;12.59;100.00
16777;BME280;8505;49.456;8.164;2023-11-19T07:09:36;99475.41;;;12.64;100.00
16777;BME280;8505;49.456;8.164;2023-11-19T07:12:05;99471.53;;;12.66;100.00
16777;BME280;8505;49.456;8.164;2023-11-19T07:14:33;99479.13;;;12.69;100.00
16777;BME280;8505;49.456;8.164;2023-11-19T07:17:00;99482.78;;;12.68;100.00
16777;BME280;8505;49.456;8.164;2023-11-19T07:19:29;99480.78;;;12.70;100.00
16777;BME280;8505;49.456;8.164;2023-11-19T07:21:57;99486.09;;;12.70;100.00
16777;BME280;8505;49.456;8.164;2023-11-19T07:24:24;99491.66;;;12.75;100.00
16777;BME280;8505;49.456;8.164;2023-11-19T07:26:54;99489.03;;;12.82;100.00
16777;BME280;8505;49.456;8.164;2023-11-19T07:29:22;99496.44;;;12.86;100.00
16777;BME280;8505;49.456;8.164;2023-11-19T07:31:53;99496.84;;;12.83;100.00
16777;BME280;8505;49.456;8.164;2023-11-19T07:34:20;99494.53;;;12.80;100.00
16777;BME280;8505;49.456;8.164;2023-11-19T07:36:49;99499.63;;;12.75;100.00
16777;BME280;8505;49.456;8.164;2023-11-19T07:39:17;99507.34;;;12.70;100.00
16777;BME280;8505;49.456;8.164;2023-11-19T07:41:47;99497.25;;;12.66;100.00
16777;BME280;8505;49.456;8.164;2023-11-19T07:44:14;99511.13;;;12.61;100.00
16777;BME280;8505;49.456;8.164;2023-11-19T07:46:43;99509.03;;;12.56;100.00
16777;BME280;8505;49.456;8.164;2023-11-19T07:49:11;99507.59;;;12.54;100.00
16777;BME280;8505;49.456;8.164;2023-11-19T07:51:39;99504.09;;;12.53;100.00
16777;BME280;8505;49.456;8.164;2023-11-19T07:54:09;99503.50;;;12.51;100.00
16777;BME280;8505;49.456;8.164;2023-11-19T07:56:37;99511.44;;;12.51;100.00
16777;BME280;8505;49.456;8.164;2023-11-19T07:59:05;99492.47;;;12.54;100.00
16777;BME280;8505;49.456;8.164;2023-11-19T08:01:33;99505.16;;;12.59;100.00
16777;BME280;8505;49.456;8.164;2023-11-19T08:04:00;99485.03;;;12.65;100.00
16777;BME280;8505;49.456;8.164;2023-11-19T08:06:29;99485.13;;;12.56;100.00
16777;BME280;8505;49.456;8.164;2023-11-19T08:08:57;99485.84;;;12.65;100.00
16777;BME280;8505;49.456;8.164;2023-11-19T08:11:27;99477.41;;;12.62;100.00
16777;BME280;8505;49.456;8.164;2023-11-19T08:13:54;99482.78;;;12.68;100.00
16777;BME280;8505;49.456;8.164;2023-11-19T08:16:22;99478.72;;;12.72;100.00
16777;BME280;8505;49.456;8.164;2023-11-19T08:18:50;99467.50;;;12.70;100.00
16777;BME280;8505;49.456;8.164;2023-11-19T08:21:18;99477.53;;;12.75;100.00
16777;BME280;8505;49.456;8.164;2023-11-19T08:23:45;99474.47;;;12.78;100.00
16777;BME280;8505;49.456;8.164;2023-11-19T08:26:14;99469.38;;;12.76;100.00
16777;BME280;8505;49.456;8.164;2023-11-19T08:28:48;99469.81;;;12.80;100.00
16777;BME280;8505;49.456;8.164;2023-11-19T08:31:15;99473.28;;;12.80;100.00
16777;BME280;8505;49.456;8.164;2023-11-19T08:33:43;99483.34;;;12.85;100.00
16777;BME280;8505;49.456;8.164;2023-11-19T08:36:15;99479.03;;;12.84;100.00
16777;BME280;8505;49.456;8.164;2023-11-19T08:38:42;99463.72;;;12.86;100.00
16777;BME280;8505;49.456;8.164;2023-11-19T08:41:10;99465.41;;;12.93;99.31
16777;BME280;8505;49.456;8.164;2023-11-19T08:43:38;99464.16;;;12.89;99.32
16777;BME280;8505;49.456;8.164;2023-11-19T08:46:10;99462.75;;;12.93;99.13
16777;BME280;8505;49.456;8.164;2023-11-19T08:48:38;99468.72;;;12.95;99.10
16777;BME280;8505;49.456;8.164;2023-11-19T08:51:06;99471.03;;;13.05;98.02
16777;BME280;8505;49.456;8.164;2023-11-19T08:53:34;99469.00;;;13.07;97.72
16777;BME280;8505;49.456;8.164;2023-11-19T08:56:02;99475.41;;;13.13;97.41
16777;BME280;8505;49.456;8.164;2023-11-19T08:58:30;99474.44;;;13.20;97.30
16777;BME280;8505;49.456;8.164;2023-11-19T09:00:58;99472.41;;;13.22;97.47
16777;BME280;8505;49.456;8.164;2023-11-19T09:03:27;99471.81;;;13.27;96.30
16777;BME280;8505;49.456;8.164;2023-11-19T09:05:57;99488.56;;;13.27;95.92
16777;BME280;8505;49.456;8.164;2023-11-19T09:08:24;99495.53;;;13.28;95.66
16777;BME280;8505;49.456;8.164;2023-11-19T09:10:52;99497.38;;;13.28;95.54
16777;BME280;8505;49.456;8.164;2023-11-19T09:13:20;99497.00;;;13.31;94.44
16777;BME280;8505;49.456;8.164;2023-11-19T09:15:47;99487.19;;;13.31;94.64
16777;BME280;8505;49.456;8.164;2023-11-19T09:18:15;99499.91;;;13.36;94.09
16777;BME280;8505;49.456;8.164;2023-11-19T09:20:44;99495.22;;;13.38;93.50
16777;BME280;8505;49.456;8.164;2023-11-19T09:23:12;99491.38;;;13.47;92.86
16777;BME280;8505;49.456;8.164;2023-11-19T09:25:40;99482.41;;;13.55;92.56
16777;BME280;8505;49.456;8.164;2023-11-19T09:28:10;99490.88;;;13.71;91.69
16777;BME280;8505;49.456;8.164;2023-11-19T09:30:38;99485.63;;;13.85;90.91
16777;BME280;8505;49.456;8.164;2023-11-19T09:33:06;99495.91;;;13.94;90.26
16777;BME280;8505;49.456;8.164;2023-11-19T09:35:34;99487.94;;;14.01;90.07
16777;BME280;8505;49.456;8.164;2023-11-19T09:38:03;99496.72;;;14.01;90.20
16777;BME280;8505;49.456;8.164;2023-11-19T09:40:31;99498.19;;;14.04;89.04
16777;BME280;8505;49.456;8.164;2023-11-19T09:42:59;99502.88;;;14.02;89.53
16777;BME280;8505;49.456;8.164;2023-11-19T09:45:29;99501.25;;;14.07;87.73
16777;BME280;8505;49.456;8.164;2023-11-19T09:48:03;99495.94;;;14.07;89.08
16777;BME280;8505;49.456;8.164;2023-11-19T09:50:32;99497.19;;;14.11;87.07
16777;BME280;8505;49.456;8.164;2023-11-19T09:53:00;99498.41;;;14.09;87.14
16777;BME280;8505;49.456;8.164;2023-11-19T09:55:29;99502.91;;;14.08;86.66
16777;BME280;8505;49.456;8.164;2023-11-19T09:58:00;99500.25;;;14.15;83.74
16777;BME280;8505;49.456;8.164;2023-11-19T10:00:30;99490.88;;;14.19;85.20
16777;BME280;8505;49.456;8.164;2023-11-19T10:03:00;99485.56;;;14.26;84.43
16777;BME280;8505;49.456;8.164;2023-11-19T10:05:32;99480.84;;;14.28;83.27
16777;BME280;8505;49.456;8.164;2023-11-19T10:08:01;99472.44;;;14.24;82.87
16777;BME280;8505;49.456;8.164;2023-11-19T10:10:30;99487.81;;;14.29;83.08
16777;BME280;8505;49.456;8.164;2023-11-19T10:12:58;99483.53;;;14.34;82.24
16777;BME280;8505;49.456;8.164;2023-11-19T10:15:27;99483.94;;;14.31;82.01
16777;BME280;8505;49.456;8.164;2023-11-19T10:17:56;99484.38;;;14.41;81.84
16777;BME280;8505;49.456;8.164;2023-11-19T10:20:25;99481.09;;;14.39;81.77
16777;BME280;8505;49.456;8.164;2023-11-19T10:22:52;99470.25;;;14.41;81.58
16777;BME280;8505;49.456;8.164;2023-11-19T10:25:25;99476.63;;;14.53;81.51
16777;BME280;8505;49.456;8.164;2023-11-19T10:27:57;99476.84;;;14.71;80.53
16777;BME280;8505;49.456;8.164;2023-11-19T10:30:25;99479.72;;;14.76;80.51
16777;BME280;8505;49.456;8.164;2023-11-19T10:33:05;99476.84;;;14.84;79.88
16777;BME280;8505;49.456;8.164;2023-11-19T10:35:34;99471.72;;;14.83;79.75
16777;BME280;8505;49.456;8.164;2023-11-19T10:38:13;99482.81;;;14.86;79.30
16777;BME280;8505;49.456;8.164;2023-11-19T10:40:41;99476.03;;;14.97;78.36
16777;BME280;8505;49.456;8.164;2023-11-19T10:43:12;99471.91;;;15.14;78.56
16777;BME280;8505;49.456;8.164;2023-11-19T10:45:40;99472.53;;;15.10;78.56
16777;BME280;8505;49.456;8.164;2023-11-19T10:48:08;99473.34;;;14.84;79.21
16777;BME280;8505;49.456;8.164;2023-11-19T10:50:37;99481.56;;;14.56;80.40
16777;BME280;8505;49.456;8.164;2023-11-19T10:53:11;99483.41;;;14.69;80.38
16777;BME280;8505;49.456;8.164;2023-11-19T10:55:41;99488.53;;;14.83;79.64
16777;BME280;8505;49.456;8.164;2023-11-19T10:58:16;99471.91;;;15.14;79.11
16777;BME280;8505;49.456;8.164;2023-11-19T11:00:44;99473.38;;;15.81;76.50
16777;BME280;8505;49.456;8.164;2023-11-19T11:03:16;99480.16;;;15.90;74.84
16777;BME280;8505;49.456;8.164;2023-11-19T11:05:47;99484.75;;;16.14;74.18
16777;BME280;8505;49.456;8.164;2023-11-19T11:08:15;99480.47;;;15.56;75.44
16777;BME280;8505;49.456;8.164;2023-11-19T11:10:45;99488.03;;;15.65;75.02
16777;BME280;8505;49.456;8.164;2023-11-19T11:13:18;99474.09;;;16.08;73.78
16777;BME280;8505;49.456;8.164;2023-11-19T11:15:48;99474.91;;;15.51;75.93
16777;BME280;8505;49.456;8.164;2023-11-19T11:18:17;99472.38;;;15.82;74.94
16777;BME280;8505;49.456;8.164;2023-11-19T11:20:45;99474.22;;;15.82;74.51
16777;BME280;8505;49.456;8.164;2023-11-19T11:23:42;99463.56;;;15.75;73.41
16777;BME280;8505;49.456;8.164;2023-11-19T11:26:26;99459.84;;;16.21;72.23
16777;BME280;8505;49.456;8.164;2023-11-19T11:29:01;99462.09;;;16.24;71.99
16777;BME280;8505;49.456;8.164;2023-11-19T11:31:38;99455.66;;;16.31;70.22
16777;BME280;8505;49.456;8.164;2023-11-19T11:34:35;99442.59;;;16.48;69.50
16777;BME280;8505;49.456;8.164;2023-11-19T11:37:14;99443.34;;;16.86;67.80
16777;BME280;8505;49.456;8.164;2023-11-19T11:39:46;99445.28;;;16.48;66.72
16777;BME280;8505;49.456;8.164;2023-11-19T11:42:34;99448.81;;;16.98;66.48
16777;BME280;8505;49.456;8.164;2023-11-19T11:45:05;99440.69;;;17.66;62.12
16777;BME280;8505;49.456;8.164;2023-11-19T11:48:08;99438.91;;;16.98;64.24
16777;BME280;8505;49.456;8.164;2023-11-19T11:50:51;99438.16;;;16.91;61.66
16777;BME280;8505;49.456;8.164;2023-11-19T11:53:20;99440.91;;;16.60;62.84
16777;BME280;8505;49.456;8.164;2023-11-19T11:55:56;99452.75;;;16.39;63.06
16777;BME280;8505;49.456;8.164;2023-11-19T11:58:29;99471.31;;;16.28;63.33
16777;BME280;8505;49.456;8.164;2023-11-19T12:01:02;99438.88;;;16.49;62.00
16777;BME280;8505;49.456;8.164;2023-11-19T12:03:32;99449.25;;;16.39;62.25
16777;BME280;8505;49.456;8.164;2023-11-19T12:06:00;99453.81;;;16.32;62.87
16777;BME280;8505;49.456;8.164;2023-11-19T12:08:29;99465.31;;;16.32;63.86
16777;BME280;8505;49.456;8.164;2023-11-19T12:10:58;99465.81;;;16.23;63.96
16777;BME280;8505;49.456;8.164;2023-11-19T12:13:46;99457.69;;;16.04;65.44
16777;BME280;8505;49.456;8.164;2023-11-19T12:16:16;99479.03;;;15.47;67.36
16777;BME280;8505;49.456;8.164;2023-11-19T12:18:44;99463.41;;;15.57;66.79
16777;BME280;8505;49.456;8.164;2023-11-19T12:21:27;99463.81;;;15.67;66.41
16777;BME280;8505;49.456;8.164;2023-11-19T12:23:58;99460.97;;;15.49;67.41
16777;BME280;8505;49.456;8.164;2023-11-19T12:26:32;99464.25;;;15.37;68.20
16777;BME280;8505;49.456;8.164;2023-11-19T12:29:00;99461.00;;;15.29;67.95
16777;BME280;8505;49.456;8.164;2023-11-19T12:31:35;99449.91;;;15.25;69.16
16777;BME280;8505;49.456;8.164;2023-11-19T12:34:08;99457.94;;;15.12;69.88
16777;BME280;8505;49.456;8.164;2023-11-19T12:36:40;99451.75;;;15.31;69.29
16777;BME280;8505;49.456;8.164;2023-11-19T12:39:09;99445.16;;;15.47;68.83
16777;BME280;8505;49.456;8.164;2023-11-19T12:41:52;99443.56;;;15.26;69.00
16777;BME280;8505;49.456;8.164;2023-11-19T12:44:21;99436.03;;;15.74;67.24
16777;BME280;8505;49.456;8.164;2023-11-19T12:47:03;99438.72;;;16.12;64.87
16777;BME280;8505;49.456;8.164;2023-11-19T12:49:34;99439.28;;;16.21;64.73
16777;BME280;8505;49.456;8.164;2023-11-19T12:52:11;99440.91;;;16.29;64.38
16777;BME280;8505;49.456;8.164;2023-11-19T12:54:39;99417.66;;;17.04;62.57
16777;BME280;8505;49.456;8.164;2023-11-19T12:57:06;99411.53;;;17.21;61.24
16777;BME280;8505;49.456;8.164;2023-11-19T12:59:34;99417.13;;;17.74;60.11
16777;BME280;8505;49.456;8.164;2023-11-19T13:02:03;99401.91;;;16.77;59.74
16777;BME280;8505;49.456;8.164;2023-11-19T13:04:33;99407.16;;;16.59;59.86
16777;BME280;8505;49.456;8.164;2023-11-19T13:07:01;99395.84;;;17.25;57.90
16777;BME280;8505;49.456;8.164;2023-11-19T13:09:32;99389.75;;;17.36;56.73
16777;BME280;8505;49.456;8.164;2023-11-19T13:11:59;99400.22;;;17.01;57.86
16777;BME280;8505;49.456;8.164;2023-11-19T13:14:39;99392.69;;;17.10;57.65
16777;BME280;8505;49.456;8.164;2023-11-19T13:17:13;99400.16;;;16.65;58.97